createdAt,value
2018-11-29T00:01:35.201Z,101092.39
2018-11-29T00:06:37.626Z,101093.28
2018-11-29T00:11:40.279Z,101090.45
2018-11-29T00:16:43.158Z,101089.05
2018-11-29T00:21:45.585Z,101086.47
2018-11-29T00:26:48.036Z,101091.23
2018-11-29T00:31:50.581Z,101083.29
2018-11-29T00:36:52.992Z,101078.42
2018-11-29T00:41:55.523Z,101076.70
2018-11-29T00:46:57.959Z,101073.95
2018-11-29T00:52:00.386Z,101070.08
2018-11-29T00:57:02.786Z,101065.70
2018-11-29T01:02:05.539Z,101074.41
2018-11-29T01:07:07.923Z,101068.81
2018-11-29T01:12:10.561Z,101084.09
2018-11-29T01:17:12.924Z,101077.48
2018-11-29T01:22:15.374Z,101077.09
2018-11-29T01:27:18.754Z,101080.23
2018-11-29T01:32:21.268Z,101054.81
2018-11-29T01:37:24.111Z,101038.94
2018-11-29T01:42:26.578Z,101034.09
2018-11-29T01:47:29.063Z,101037.59
2018-11-29T01:52:31.515Z,101052.12
2018-11-29T01:57:33.937Z,101071.89
2018-11-29T02:02:36.462Z,101076.68
2018-11-29T02:07:38.880Z,101062.23
2018-11-29T02:12:41.445Z,101061.36
2018-11-29T02:17:44.015Z,101059.60
2018-11-29T02:22:46.802Z,101052.61
2018-11-29T02:27:49.299Z,101039.05
2018-11-29T02:32:51.970Z,101036.30
2018-11-29T02:37:54.480Z,101039.00
2018-11-29T02:48:41.415Z,101034.51
2018-11-29T02:53:53.285Z,101039.75
2018-11-29T02:58:55.729Z,101028.44
2018-11-29T03:03:58.154Z,101028.25
2018-11-29T03:14:13.475Z,101020.42
2018-11-29T03:19:16.001Z,100997.98
2018-11-29T03:24:18.456Z,100979.78
2018-11-29T03:29:20.870Z,100975.64
2018-11-29T03:34:23.623Z,100977.44
2018-11-29T03:39:25.980Z,100965.11
2018-11-29T03:44:28.423Z,100948.03
2018-11-29T03:49:30.968Z,100941.55
2018-11-29T03:54:34.074Z,100945.05
2018-11-29T03:59:36.458Z,100951.50
2018-11-29T04:04:38.926Z,100941.84
2018-11-29T04:09:41.475Z,100959.02
2018-11-29T04:14:43.816Z,100964.21
2018-11-29T04:19:46.402Z,100967.39
2018-11-29T04:24:48.742Z,100950.19
2018-11-29T04:29:51.244Z,100962.52
2018-11-29T04:34:54.027Z,100976.47
2018-11-29T04:39:56.478Z,100974.73
2018-11-29T04:44:58.988Z,100977.79
2018-11-29T04:50:01.429Z,100979.14
2018-11-29T04:55:04.147Z,100952.64
2018-11-29T05:00:12.849Z,100941.31
2018-11-29T05:05:15.258Z,100943.50
2018-11-29T05:10:17.960Z,100945.61
2018-11-29T05:15:20.341Z,100939.93
2018-11-29T05:20:22.975Z,100925.45
2018-11-29T05:25:25.423Z,100928.46
2018-11-29T05:30:27.896Z,100927.91
2018-11-29T05:35:30.275Z,100917.17
2018-11-29T05:40:32.736Z,100905.67
2018-11-29T05:45:35.231Z,100893.33
2018-11-29T05:50:37.749Z,100899.20
2018-11-29T05:55:40.156Z,100891.79
2018-11-29T06:00:42.733Z,100908.94
2018-11-29T06:10:56.870Z,100911.15
2018-11-29T06:15:59.263Z,100907.44
2018-11-29T06:21:01.758Z,100900.96
2018-11-29T06:26:04.303Z,100903.52
2018-11-29T06:31:06.994Z,100891.75
2018-11-29T06:36:09.638Z,100896.11
2018-11-29T06:41:12.229Z,100895.36
2018-11-29T06:46:14.783Z,100903.48
2018-11-29T06:51:17.226Z,100893.45
2018-11-29T06:56:19.957Z,100893.97
2018-11-29T07:01:22.909Z,100885.05
2018-11-29T07:06:25.295Z,100884.72
2018-11-29T07:11:28.010Z,100866.63
2018-11-29T07:16:30.587Z,100865.05
2018-11-29T07:21:54.512Z,100879.53
2018-11-29T07:26:56.916Z,100875.16
2018-11-29T07:31:59.435Z,100873.84
2018-11-29T07:37:01.906Z,100864.22
2018-11-29T07:42:04.620Z,100854.59
2018-11-29T07:47:07.087Z,100868.55
2018-11-29T07:52:09.457Z,100873.23
2018-11-29T07:57:11.818Z,100868.13
2018-11-29T08:02:14.296Z,100869.52
2018-11-29T08:07:16.764Z,100870.27
2018-11-29T08:12:34.670Z,100875.09
2018-11-29T08:17:37.074Z,100879.56
2018-11-29T08:22:59.449Z,100872.53
2018-11-29T08:28:01.896Z,100873.39
2018-11-29T08:38:31.966Z,100867.44
2018-11-29T08:43:46.441Z,100856.20
2018-11-29T08:48:48.809Z,100850.22
2018-11-29T08:53:51.562Z,100850.75
2018-11-29T08:58:53.960Z,100846.28
2018-11-29T09:03:56.675Z,100849.32
2018-11-29T09:08:59.100Z,100839.61
2018-11-29T09:14:01.530Z,100846.86
2018-11-29T09:19:03.974Z,100849.86
2018-11-29T09:24:06.410Z,100862.45
2018-11-29T09:29:09.221Z,100851.98
2018-11-29T09:34:11.623Z,100851.31
2018-11-29T09:39:14.232Z,100837.91
2018-11-29T09:44:16.763Z,100830.50
2018-11-29T09:49:19.288Z,100821.30
2018-11-29T09:54:21.658Z,100837.80
2018-11-29T09:59:24.373Z,100828.00
2018-11-29T10:04:26.794Z,100826.08
2018-11-29T10:09:29.260Z,100819.33
2018-11-29T10:14:31.666Z,100818.06
2018-11-29T10:19:34.068Z,100809.04
2018-11-29T10:24:36.514Z,100804.98
2018-11-29T10:29:38.986Z,100800.67
2018-11-29T10:34:41.485Z,100791.12
2018-11-29T10:39:43.849Z,100785.81
2018-11-29T10:44:46.394Z,100784.14
2018-11-29T10:49:49.102Z,100772.57
2018-11-29T10:54:51.534Z,100766.08
2018-11-29T10:59:54.026Z,100774.64
2018-11-29T11:04:56.582Z,100767.19
2018-11-29T11:09:59.001Z,100757.75
2018-11-29T11:15:01.416Z,100754.05
2018-11-29T11:20:04.381Z,100755.59
2018-11-29T11:25:08.426Z,100754.30
2018-11-29T11:30:12.395Z,100741.54
2018-11-29T11:35:14.887Z,100742.29
2018-11-29T11:40:17.336Z,100738.40
2018-11-29T11:45:20.264Z,100732.89
2018-11-29T11:50:23.638Z,100721.26
2018-11-29T11:55:29.950Z,100722.69
2018-11-29T12:00:29.573Z,100717.69
2018-11-29T12:05:32.083Z,100707.08
2018-11-29T12:10:34.683Z,100695.48
2018-11-29T12:15:37.681Z,100699.84
2018-11-29T12:20:40.085Z,100680.95
2018-11-29T12:25:42.555Z,100680.67
2018-11-29T12:30:46.671Z,100666.36
2018-11-29T12:35:49.071Z,100660.85
2018-11-29T12:40:51.533Z,100655.00
2018-11-29T12:45:53.970Z,100646.33
2018-11-29T12:50:56.523Z,100631.76
2018-11-29T12:55:58.972Z,100628.70
2018-11-29T13:01:01.416Z,100611.14
2018-11-29T13:06:03.914Z,100599.67
2018-11-29T13:11:10.687Z,100603.98
2018-11-29T13:16:08.899Z,100580.55
2018-11-29T13:21:11.450Z,100583.64
2018-11-29T13:26:13.957Z,100578.28
2018-11-29T13:31:16.481Z,100562.46
2018-11-29T13:36:18.912Z,100537.48
2018-11-29T13:41:21.428Z,100541.47
2018-11-29T13:46:23.829Z,100551.15
2018-11-29T13:51:26.284Z,100566.55
2018-11-29T13:56:28.737Z,100567.88
2018-11-29T14:01:31.195Z,100565.34
2018-11-29T14:06:40.246Z,100579.41
2018-11-29T14:11:42.886Z,100583.26
2018-11-29T14:16:45.290Z,100584.58
2018-11-29T14:21:51.260Z,100573.61
2018-11-29T14:26:50.735Z,100561.84
2018-11-29T14:31:53.209Z,100521.73
2018-11-29T14:36:55.633Z,100469.47
2018-11-29T14:41:58.045Z,100405.25
2018-11-29T14:47:00.511Z,100440.86
2018-11-29T14:52:03.011Z,100483.84
2018-11-29T14:57:05.558Z,100498.83
2018-11-29T15:02:07.933Z,100475.01
2018-11-29T15:07:10.490Z,100479.27
2018-11-29T15:12:12.933Z,100505.75
2018-11-29T15:17:15.443Z,100515.45
2018-11-29T15:22:17.868Z,100526.36
2018-11-29T15:27:20.340Z,100558.48
2018-11-29T15:32:22.954Z,100551.02
2018-11-29T15:37:25.405Z,100526.74
2018-11-29T15:42:27.874Z,100458.02
2018-11-29T15:47:30.424Z,100437.91
2018-11-29T15:52:32.802Z,100420.23
2018-11-29T15:57:35.517Z,100411.05
2018-11-29T16:02:38.147Z,100422.47
2018-11-29T16:07:40.867Z,100431.19
2018-11-29T16:12:43.357Z,100429.01
2018-11-29T16:17:53.154Z,100419.91
2018-11-29T16:22:55.886Z,100416.92
2018-11-29T16:27:58.320Z,100408.15
2018-11-29T16:33:03.361Z,100407.23
2018-11-29T16:38:06.290Z,100396.61
2018-11-29T16:43:08.687Z,100383.88
2018-11-29T16:48:11.183Z,100381.61
2018-11-29T16:53:13.696Z,100379.91
2018-11-29T16:58:17.969Z,100389.61
2018-11-29T17:03:20.470Z,100390.78
2018-11-29T17:08:22.875Z,100384.10
2018-11-29T17:13:25.573Z,100390.27
2018-11-29T17:18:27.987Z,100395.41
2018-11-29T17:23:30.971Z,100389.09
2018-11-29T17:28:33.446Z,100391.48
2018-11-29T17:33:35.922Z,100396.95
2018-11-29T17:38:38.450Z,100391.30
2018-11-29T17:43:40.952Z,100395.09
2018-11-29T17:48:43.570Z,100392.30
2018-11-29T17:53:46.149Z,100387.34
2018-11-29T17:58:48.567Z,100387.14
2018-11-29T18:03:51.091Z,100367.42
2018-11-29T18:08:53.569Z,100383.78
2018-11-29T18:13:56.101Z,100390.47
2018-11-29T18:18:58.795Z,100390.47
2018-11-29T18:24:01.272Z,100396.09
2018-11-29T18:29:04.373Z,100404.88
2018-11-29T18:34:06.789Z,100395.83
2018-11-29T18:39:09.401Z,100413.53
2018-11-29T18:44:11.869Z,100401.53
2018-11-29T18:49:14.322Z,100404.30
2018-11-29T18:54:16.875Z,100400.46
2018-11-29T18:59:19.427Z,100381.81
2018-11-29T19:04:21.893Z,100389.80
2018-11-29T19:09:24.327Z,100391.23
2018-11-29T19:14:26.798Z,100383.94
2018-11-29T19:19:29.348Z,100389.27
2018-11-29T19:24:31.962Z,100381.56
2018-11-29T19:29:34.424Z,100389.78
2018-11-29T19:34:36.904Z,100403.26
2018-11-29T19:39:39.394Z,100402.83
2018-11-29T19:44:41.934Z,100401.40
2018-11-29T19:49:44.374Z,100421.30
2018-11-29T19:54:46.791Z,100411.88
2018-11-29T19:59:49.268Z,100405.61
2018-11-29T20:04:52.291Z,100405.89
2018-11-29T20:09:54.767Z,100389.27
2018-11-29T20:14:57.650Z,100390.98
2018-11-29T20:20:00.357Z,100394.86
2018-11-29T20:25:02.868Z,100391.98
2018-11-29T20:30:08.882Z,100394.94
2018-11-29T20:35:12.281Z,100400.86
2018-11-29T20:40:25.434Z,100405.03
2018-11-29T20:45:29.389Z,100404.81
2018-11-29T20:50:32.384Z,100396.37
2018-11-29T20:55:36.316Z,100397.31
2018-11-29T21:00:45.754Z,100405.22
2018-11-29T21:05:54.420Z,100396.69
2018-11-29T21:10:56.853Z,100400.05
2018-11-29T21:15:59.641Z,100393.54
2018-11-29T21:21:02.508Z,100390.25
2018-11-29T21:26:05.343Z,100396.36
2018-11-29T21:31:09.927Z,100386.98
2018-11-29T21:41:43.159Z,100374.39
2018-11-29T21:52:01.952Z,100358.05
2018-11-29T21:57:04.816Z,100343.15
2018-11-29T22:02:07.197Z,100354.04
2018-11-29T22:07:09.738Z,100353.11
2018-11-29T22:12:12.415Z,100340.44
2018-11-29T22:17:14.837Z,100340.57
2018-11-29T22:22:17.231Z,100360.95
2018-11-29T22:27:19.653Z,100338.88
2018-11-29T22:32:22.324Z,100334.53
2018-11-29T22:37:24.707Z,100338.61
2018-11-29T22:42:27.726Z,100339.93
2018-11-29T22:47:30.231Z,100330.38
2018-11-29T22:52:32.710Z,100317.94
2018-11-29T22:57:35.171Z,100324.34
2018-11-29T23:02:38.283Z,100324.06
2018-11-29T23:07:40.814Z,100323.72
2018-11-29T23:12:43.375Z,100330.80
2018-11-29T23:17:45.780Z,100337.70
2018-11-29T23:22:48.210Z,100341.70
2018-11-29T23:27:50.943Z,100344.98
2018-11-29T23:32:53.451Z,100347.30
2018-11-29T23:37:55.923Z,100344.66
2018-11-29T23:42:58.417Z,100345.70
2018-11-29T23:48:00.938Z,100343.58
2018-11-29T23:53:03.641Z,100349.09
2018-11-29T23:58:06.166Z,100348.16
